sensor_id;sensor_type;location;lat;lon;timestamp;temperature;humidity
27671;DHT22;15077;49.704;9.908;2022-09-20T00:00:03;14.20;62.70
27671;DHT22;15077;49.704;9.908;2022-09-20T00:02:29;14.20;62.70
27671;DHT22;15077;49.704;9.908;2022-09-20T00:04:55;14.20;62.30
27671;DHT22;15077;49.704;9.908;2022-09-20T00:07:21;14.10;62.80
27671;DHT22;15077;49.704;9.908;2022-09-20T00:09:47;14.10;62.80
27671;DHT22;15077;49.704;9.908;2022-09-20T00:12:12;14.20;62.90
27671;DHT22;15077;49.704;9.908;2022-09-20T00:14:38;14.20;63.00
27671;DHT22;15077;49.704;9.908;2022-09-20T00:17:04;14.10;63.00
27671;DHT22;15077;49.704;9.908;2022-09-20T00:19:29;14.10;63.10
27671;DHT22;15077;49.704;9.908;2022-09-20T00:21:55;14.20;63.10
27671;DHT22;15077;49.704;9.908;2022-09-20T00:24:21;14.10;63.10
27671;DHT22;15077;49.704;9.908;2022-09-20T00:26:47;14.10;63.80
27671;DHT22;15077;49.704;9.908;2022-09-20T00:29:12;14.20;63.40
27671;DHT22;15077;49.704;9.908;2022-09-20T00:31:38;14.10;63.30
27671;DHT22;15077;49.704;9.908;2022-09-20T00:34:07;14.20;63.30
27671;DHT22;15077;49.704;9.908;2022-09-20T00:36:52;14.20;63.40
27671;DHT22;15077;49.704;9.908;2022-09-20T00:39:18;14.20;63.80
27671;DHT22;15077;49.704;9.908;2022-09-20T00:41:44;14.20;63.40
27671;DHT22;15077;49.704;9.908;2022-09-20T00:47:23;14.20;63.40
27671;DHT22;15077;49.704;9.908;2022-09-20T00:50:39;14.20;63.40
27671;DHT22;15077;49.704;9.908;2022-09-20T00:52:50;14.20;63.40
27671;DHT22;15077;49.704;9.908;2022-09-20T00:55:21;14.20;63.50
27671;DHT22;15077;49.704;9.908;2022-09-20T00:57:47;14.30;63.50
27671;DHT22;15077;49.704;9.908;2022-09-20T01:00:13;14.30;63.50
27671;DHT22;15077;49.704;9.908;2022-09-20T01:02:45;14.30;63.50
27671;DHT22;15077;49.704;9.908;2022-09-20T01:05:13;14.30;63.50
27671;DHT22;15077;49.704;9.908;2022-09-20T01:07:41;14.30;63.60
27671;DHT22;15077;49.704;9.908;2022-09-20T01:10:08;14.30;63.50
27671;DHT22;15077;49.704;9.908;2022-09-20T01:12:34;14.30;63.50
27671;DHT22;15077;49.704;9.908;2022-09-20T01:15:04;14.30;63.50
27671;DHT22;15077;49.704;9.908;2022-09-20T01:17:33;14.30;63.50
27671;DHT22;15077;49.704;9.908;2022-09-20T01:28:31;14.30;63.50
27671;DHT22;15077;49.704;9.908;2022-09-20T01:35:55;14.40;63.50
27671;DHT22;15077;49.704;9.908;2022-09-20T01:41:11;14.40;63.50
27671;DHT22;15077;49.704;9.908;2022-09-20T01:43:57;14.40;63.50
27671;DHT22;15077;49.704;9.908;2022-09-20T01:46:46;14.40;63.50
27671;DHT22;15077;49.704;9.908;2022-09-20T02:00:32;14.40;63.60
27671;DHT22;15077;49.704;9.908;2022-09-20T02:14:42;14.30;63.50
27671;DHT22;15077;49.704;9.908;2022-09-20T02:17:11;14.30;63.50
27671;DHT22;15077;49.704;9.908;2022-09-20T02:19:53;14.30;63.50
27671;DHT22;15077;49.704;9.908;2022-09-20T02:22:30;14.30;63.50
27671;DHT22;15077;49.704;9.908;2022-09-20T02:30:47;14.20;63.40
27671;DHT22;15077;49.704;9.908;2022-09-20T02:46:47;14.10;63.50
27671;DHT22;15077;49.704;9.908;2022-09-20T02:49:34;14.10;63.50
27671;DHT22;15077;49.704;9.908;2022-09-20T02:52:26;14.10;63.50
27671;DHT22;15077;49.704;9.908;2022-09-20T02:55:15;14.00;63.50
27671;DHT22;15077;49.704;9.908;2022-09-20T03:00:24;14.00;63.50
27671;DHT22;15077;49.704;9.908;2022-09-20T03:03:03;14.00;63.50
27671;DHT22;15077;49.704;9.908;2022-09-20T03:08:14;14.00;63.50
27671;DHT22;15077;49.704;9.908;2022-09-20T03:10:53;13.90;63.50
27671;DHT22;15077;49.704;9.908;2022-09-20T03:16:44;13.90;63.40
27671;DHT22;15077;49.704;9.908;2022-09-20T03:22:12;13.80;63.40
27671;DHT22;15077;49.704;9.908;2022-09-20T03:24:58;13.80;63.50
27671;DHT22;15077;49.704;9.908;2022-09-20T03:30:23;13.70;63.60
27671;DHT22;15077;49.704;9.908;2022-09-20T03:38:09;13.60;63.60
27671;DHT22;15077;49.704;9.908;2022-09-20T03:40:47;13.60;63.80
27671;DHT22;15077;49.704;9.908;2022-09-20T03:46:27;13.50;63.70
27671;DHT22;15077;49.704;9.908;2022-09-20T03:57:51;13.60;63.80
27671;DHT22;15077;49.704;9.908;2022-09-20T04:13:54;13.50;63.70
27671;DHT22;15077;49.704;9.908;2022-09-20T04:22:06;13.40;63.60
27671;DHT22;15077;49.704;9.908;2022-09-20T04:24:52;13.40;63.60
27671;DHT22;15077;49.704;9.908;2022-09-20T04:27:40;13.30;63.60
27671;DHT22;15077;49.704;9.908;2022-09-20T04:30:18;13.30;63.60
27671;DHT22;15077;49.704;9.908;2022-09-20T04:33:35;13.30;63.60
27671;DHT22;15077;49.704;9.908;2022-09-20T04:53:14;13.10;63.80
27671;DHT22;15077;49.704;9.908;2022-09-20T04:55:52;13.10;63.80
27671;DHT22;15077;49.704;9.908;2022-09-20T04:58:28;13.00;63.80
27671;DHT22;15077;49.704;9.908;2022-09-20T05:09:18;13.00;64.00
27671;DHT22;15077;49.704;9.908;2022-09-20T05:14:36;13.00;64.40
27671;DHT22;15077;49.704;9.908;2022-09-20T05:17:23;12.90;64.20
27671;DHT22;15077;49.704;9.908;2022-09-20T05:26:00;12.90;64.40
27671;DHT22;15077;49.704;9.908;2022-09-20T05:28:54;12.90;64.60
27671;DHT22;15077;49.704;9.908;2022-09-20T05:31:46;12.90;64.50
27671;DHT22;15077;49.704;9.908;2022-09-20T05:34:29;12.90;64.60
27671;DHT22;15077;49.704;9.908;2022-09-20T05:39:58;12.90;64.70
27671;DHT22;15077;49.704;9.908;2022-09-20T05:48:40;12.90;64.80
27671;DHT22;15077;49.704;9.908;2022-09-20T05:51:25;12.90;64.80
27671;DHT22;15077;49.704;9.908;2022-09-20T05:59:43;13.00;65.00
27671;DHT22;15077;49.704;9.908;2022-09-20T06:10:36;13.00;65.30
27671;DHT22;15077;49.704;9.908;2022-09-20T06:13:21;13.00;65.30
27671;DHT22;15077;49.704;9.908;2022-09-20T06:16:01;13.00;65.40
27671;DHT22;15077;49.704;9.908;2022-09-20T06:27:04;13.10;65.50
27671;DHT22;15077;49.704;9.908;2022-09-20T06:29:36;13.10;65.70
27671;DHT22;15077;49.704;9.908;2022-09-20T06:32:06;13.10;65.60
27671;DHT22;15077;49.704;9.908;2022-09-20T06:34:32;13.10;65.70
27671;DHT22;15077;49.704;9.908;2022-09-20T06:37:23;13.20;65.80
27671;DHT22;15077;49.704;9.908;2022-09-20T06:43:22;13.20;66.00
27671;DHT22;15077;49.704;9.908;2022-09-20T06:45:48;13.20;65.90
27671;DHT22;15077;49.704;9.908;2022-09-20T06:48:14;13.20;65.90
27671;DHT22;15077;49.704;9.908;2022-09-20T06:50:41;13.20;66.10
27671;DHT22;15077;49.704;9.908;2022-09-20T06:53:24;13.30;66.00
27671;DHT22;15077;49.704;9.908;2022-09-20T06:55:53;13.30;66.00
27671;DHT22;15077;49.704;9.908;2022-09-20T06:58:19;13.30;66.20
27671;DHT22;15077;49.704;9.908;2022-09-20T07:00:44;13.30;66.20
27671;DHT22;15077;49.704;9.908;2022-09-20T07:03:10;13.40;66.20
27671;DHT22;15077;49.704;9.908;2022-09-20T07:05:37;13.40;66.10
27671;DHT22;15077;49.704;9.908;2022-09-20T07:08:03;13.40;66.10
27671;DHT22;15077;49.704;9.908;2022-09-20T07:10:29;13.40;66.20
27671;DHT22;15077;49.704;9.908;2022-09-20T07:12:56;13.50;66.30
27671;DHT22;15077;49.704;9.908;2022-09-20T07:15:24;13.50;66.20
27671;DHT22;15077;49.704;9.908;2022-09-20T07:17:49;13.50;66.20
27671;DHT22;15077;49.704;9.908;2022-09-20T07:20:16;13.50;66.40
27671;DHT22;15077;49.704;9.908;2022-09-20T07:22:42;13.60;66.30
27671;DHT22;15077;49.704;9.908;2022-09-20T07:25:08;13.60;66.60
27671;DHT22;15077;49.704;9.908;2022-09-20T07:27:33;13.70;66.50
27671;DHT22;15077;49.704;9.908;2022-09-20T07:29:59;13.70;66.40
27671;DHT22;15077;49.704;9.908;2022-09-20T07:32:26;13.80;66.40
27671;DHT22;15077;49.704;9.908;2022-09-20T07:34:52;13.80;66.40
27671;DHT22;15077;49.704;9.908;2022-09-20T07:37:18;13.90;66.50
27671;DHT22;15077;49.704;9.908;2022-09-20T07:39:44;13.90;66.50
27671;DHT22;15077;49.704;9.908;2022-09-20T07:42:11;14.00;66.40
27671;DHT22;15077;49.704;9.908;2022-09-20T07:44:37;14.00;66.40
27671;DHT22;15077;49.704;9.908;2022-09-20T07:47:06;14.10;66.40
27671;DHT22;15077;49.704;9.908;2022-09-20T07:49:34;14.20;66.50
27671;DHT22;15077;49.704;9.908;2022-09-20T07:52:00;14.20;66.40
27671;DHT22;15077;49.704;9.908;2022-09-20T07:54:26;14.30;66.40
27671;DHT22;15077;49.704;9.908;2022-09-20T07:56:52;14.30;66.30
27671;DHT22;15077;49.704;9.908;2022-09-20T07:59:18;14.40;66.30
27671;DHT22;15077;49.704;9.908;2022-09-20T08:01:44;14.50;66.20
27671;DHT22;15077;49.704;9.908;2022-09-20T08:04:09;14.60;66.00
27671;DHT22;15077;49.704;9.908;2022-09-20T08:06:40;14.60;65.90
27671;DHT22;15077;49.704;9.908;2022-09-20T08:09:08;14.70;65.70
27671;DHT22;15077;49.704;9.908;2022-09-20T08:11:34;14.70;65.50
27671;DHT22;15077;49.704;9.908;2022-09-20T08:14:00;14.80;65.50
27671;DHT22;15077;49.704;9.908;2022-09-20T08:16:27;14.80;65.50
27671;DHT22;15077;49.704;9.908;2022-09-20T08:18:55;14.90;65.60
27671;DHT22;15077;49.704;9.908;2022-09-20T08:21:25;15.00;65.60
27671;DHT22;15077;49.704;9.908;2022-09-20T08:23:53;15.00;65.50
27671;DHT22;15077;49.704;9.908;2022-09-20T08:26:19;15.10;65.30
27671;DHT22;15077;49.704;9.908;2022-09-20T08:28:50;15.20;65.20
27671;DHT22;15077;49.704;9.908;2022-09-20T08:31:17;15.20;65.00
27671;DHT22;15077;49.704;9.908;2022-09-20T08:33:45;15.30;64.90
27671;DHT22;15077;49.704;9.908;2022-09-20T08:36:13;15.40;64.70
27671;DHT22;15077;49.704;9.908;2022-09-20T08:38:41;15.40;64.60
27671;DHT22;15077;49.704;9.908;2022-09-20T08:41:11;15.40;64.50
27671;DHT22;15077;49.704;9.908;2022-09-20T08:43:44;15.50;64.50
27671;DHT22;15077;49.704;9.908;2022-09-20T08:46:15;15.60;64.40
27671;DHT22;15077;49.704;9.908;2022-09-20T08:48:42;15.60;64.40
27671;DHT22;15077;49.704;9.908;2022-09-20T08:51:10;15.70;64.20
27671;DHT22;15077;49.704;9.908;2022-09-20T08:53:41;15.70;64.10
27671;DHT22;15077;49.704;9.908;2022-09-20T08:56:11;15.80;64.00
27671;DHT22;15077;49.704;9.908;2022-09-20T08:58:36;15.80;63.90
27671;DHT22;15077;49.704;9.908;2022-09-20T09:01:03;15.90;63.90
27671;DHT22;15077;49.704;9.908;2022-09-20T09:03:30;15.90;63.70
27671;DHT22;15077;49.704;9.908;2022-09-20T09:05:57;15.90;63.70
27671;DHT22;15077;49.704;9.908;2022-09-20T09:10:58;16.00;63.70
27671;DHT22;15077;49.704;9.908;2022-09-20T09:16:14;16.00;63.50
27671;DHT22;15077;49.704;9.908;2022-09-20T09:18:42;16.10;63.60
27671;DHT22;15077;49.704;9.908;2022-09-20T09:21:20;16.10;63.60
27671;DHT22;15077;49.704;9.908;2022-09-20T09:26:23;16.20;63.90
27671;DHT22;15077;49.704;9.908;2022-09-20T09:31:46;16.20;63.00
27671;DHT22;15077;49.704;9.908;2022-09-20T09:34:24;16.30;63.00
27671;DHT22;15077;49.704;9.908;2022-09-20T09:36:59;16.30;62.80
27671;DHT22;15077;49.704;9.908;2022-09-20T09:39:29;16.30;62.80
27671;DHT22;15077;49.704;9.908;2022-09-20T09:41:56;16.30;62.80
27671;DHT22;15077;49.704;9.908;2022-09-20T09:44:29;16.20;62.90
27671;DHT22;15077;49.704;9.908;2022-09-20T09:46:59;16.20;62.90
27671;DHT22;15077;49.704;9.908;2022-09-20T09:49:26;16.20;62.90
27671;DHT22;15077;49.704;9.908;2022-09-20T09:54:30;16.20;62.90
27671;DHT22;15077;49.704;9.908;2022-09-20T10:05:31;16.20;63.10
27671;DHT22;15077;49.704;9.908;2022-09-20T10:08:12;16.20;63.10
27671;DHT22;15077;49.704;9.908;2022-09-20T10:11:00;16.20;63.10
27671;DHT22;15077;49.704;9.908;2022-09-20T10:19:19;16.40;63.80
27671;DHT22;15077;49.704;9.908;2022-09-20T10:22:28;16.50;63.10
27671;DHT22;15077;49.704;9.908;2022-09-20T10:39:02;17.00;63.30
27671;DHT22;15077;49.704;9.908;2022-09-20T10:44:50;17.40;62.70
27671;DHT22;15077;49.704;9.908;2022-09-20T10:47:25;17.60;62.70
27671;DHT22;15077;49.704;9.908;2022-09-20T10:52:58;18.00;62.10
27671;DHT22;15077;49.704;9.908;2022-09-20T11:08:49;18.90;59.10
27671;DHT22;15077;49.704;9.908;2022-09-20T11:11:21;19.00;59.70
27671;DHT22;15077;49.704;9.908;2022-09-20T11:19:17;18.90;59.00
27671;DHT22;15077;49.704;9.908;2022-09-20T11:21:52;18.90;58.80
27671;DHT22;15077;49.704;9.908;2022-09-20T11:24:32;18.90;58.90
27671;DHT22;15077;49.704;9.908;2022-09-20T11:27:19;18.90;58.50
27671;DHT22;15077;49.704;9.908;2022-09-20T11:32:50;18.80;58.60
27671;DHT22;15077;49.704;9.908;2022-09-20T11:37:53;18.70;58.70
27671;DHT22;15077;49.704;9.908;2022-09-20T11:40:44;18.80;58.70
27671;DHT22;15077;49.704;9.908;2022-09-20T11:43:14;18.70;58.30
27671;DHT22;15077;49.704;9.908;2022-09-20T11:45:42;18.70;58.30
27671;DHT22;15077;49.704;9.908;2022-09-20T11:48:20;18.70;58.70
27671;DHT22;15077;49.704;9.908;2022-09-20T11:56:24;18.80;59.00
27671;DHT22;15077;49.704;9.908;2022-09-20T11:58:55;18.90;59.00
27671;DHT22;15077;49.704;9.908;2022-09-20T12:01:28;18.90;58.70
27671;DHT22;15077;49.704;9.908;2022-09-20T12:04:38;19.00;58.90
27671;DHT22;15077;49.704;9.908;2022-09-20T12:06:55;19.10;58.30
27671;DHT22;15077;49.704;9.908;2022-09-20T12:09:41;19.20;58.40
27671;DHT22;15077;49.704;9.908;2022-09-20T12:12:16;19.30;58.20
27671;DHT22;15077;49.704;9.908;2022-09-20T12:15:00;19.30;57.90
27671;DHT22;15077;49.704;9.908;2022-09-20T12:28:51;19.80;57.60
27671;DHT22;15077;49.704;9.908;2022-09-20T12:36:24;20.00;57.30
27671;DHT22;15077;49.704;9.908;2022-09-20T12:38:59;20.00;57.20
27671;DHT22;15077;49.704;9.908;2022-09-20T13:00:40;20.50;55.60
27671;DHT22;15077;49.704;9.908;2022-09-20T13:05:45;20.50;55.40
27671;DHT22;15077;49.704;9.908;2022-09-20T13:09:13;20.50;55.50
27671;DHT22;15077;49.704;9.908;2022-09-20T13:11:14;20.60;55.80
27671;DHT22;15077;49.704;9.908;2022-09-20T13:13:45;20.70;55.30
27671;DHT22;15077;49.704;9.908;2022-09-20T13:16:25;20.70;54.30
27671;DHT22;15077;49.704;9.908;2022-09-20T13:19:02;20.80;54.50
27671;DHT22;15077;49.704;9.908;2022-09-20T13:21:31;20.80;54.60
27671;DHT22;15077;49.704;9.908;2022-09-20T13:23:59;20.80;54.40
27671;DHT22;15077;49.704;9.908;2022-09-20T13:26:28;20.90;54.70
27671;DHT22;15077;49.704;9.908;2022-09-20T13:28:57;20.80;55.00
27671;DHT22;15077;49.704;9.908;2022-09-20T13:31:27;20.80;54.70
27671;DHT22;15077;49.704;9.908;2022-09-20T13:34:10;20.80;54.60
27671;DHT22;15077;49.704;9.908;2022-09-20T13:36:43;20.70;54.60
27671;DHT22;15077;49.704;9.908;2022-09-20T13:39:20;20.60;54.90
27671;DHT22;15077;49.704;9.908;2022-09-20T13:41:49;20.60;55.20
27671;DHT22;15077;49.704;9.908;2022-09-20T13:44:15;20.50;55.10
27671;DHT22;15077;49.704;9.908;2022-09-20T13:46:42;20.50;55.40
27671;DHT22;15077;49.704;9.908;2022-09-20T13:49:15;20.40;55.00
27671;DHT22;15077;49.704;9.908;2022-09-20T13:51:46;20.40;55.20
27671;DHT22;15077;49.704;9.908;2022-09-20T13:54:17;20.40;54.80
27671;DHT22;15077;49.704;9.908;2022-09-20T13:56:43;20.40;54.60
27671;DHT22;15077;49.704;9.908;2022-09-20T13:59:09;20.30;54.60
27671;DHT22;15077;49.704;9.908;2022-09-20T14:01:47;20.30;54.70
27671;DHT22;15077;49.704;9.908;2022-09-20T14:04:15;20.30;54.60
27671;DHT22;15077;49.704;9.908;2022-09-20T14:06:44;20.20;54.60
27671;DHT22;15077;49.704;9.908;2022-09-20T14:09:16;20.20;54.80
27671;DHT22;15077;49.704;9.908;2022-09-20T14:11:45;20.20;55.00
27671;DHT22;15077;49.704;9.908;2022-09-20T14:14:11;20.10;55.00
27671;DHT22;15077;49.704;9.908;2022-09-20T14:16:40;20.10;55.10
27671;DHT22;15077;49.704;9.908;2022-09-20T14:19:12;20.00;55.10
27671;DHT22;15077;49.704;9.908;2022-09-20T14:21:40;20.00;55.20
27671;DHT22;15077;49.704;9.908;2022-09-20T14:26:40;19.80;55.20
27671;DHT22;15077;49.704;9.908;2022-09-20T14:32:24;19.70;55.20
27671;DHT22;15077;49.704;9.908;2022-09-20T14:40:23;19.50;55.60
27671;DHT22;15077;49.704;9.908;2022-09-20T14:42:58;19.50;55.70
27671;DHT22;15077;49.704;9.908;2022-09-20T14:50:30;19.40;56.10
27671;DHT22;15077;49.704;9.908;2022-09-20T14:55:36;19.40;56.20
27671;DHT22;15077;49.704;9.908;2022-09-20T14:58:10;19.40;56.30
27671;DHT22;15077;49.704;9.908;2022-09-20T15:03:16;19.30;56.10
27671;DHT22;15077;49.704;9.908;2022-09-20T15:05:49;19.20;55.90
27671;DHT22;15077;49.704;9.908;2022-09-20T15:08:15;19.20;55.90
27671;DHT22;15077;49.704;9.908;2022-09-20T15:10:42;19.10;56.00
27671;DHT22;15077;49.704;9.908;2022-09-20T15:13:09;19.00;56.10
27671;DHT22;15077;49.704;9.908;2022-09-20T15:15:35;19.00;56.10
27671;DHT22;15077;49.704;9.908;2022-09-20T15:18:02;19.00;56.00
27671;DHT22;15077;49.704;9.908;2022-09-20T15:20:28;18.90;55.90
27671;DHT22;15077;49.704;9.908;2022-09-20T15:22:53;18.90;56.00
27671;DHT22;15077;49.704;9.908;2022-09-20T15:25:20;18.90;56.20
27671;DHT22;15077;49.704;9.908;2022-09-20T15:27:46;18.80;56.20
27671;DHT22;15077;49.704;9.908;2022-09-20T15:30:16;18.80;56.20
27671;DHT22;15077;49.704;9.908;2022-09-20T15:32:44;18.80;56.30
27671;DHT22;15077;49.704;9.908;2022-09-20T15:35:10;18.80;56.30
27671;DHT22;15077;49.704;9.908;2022-09-20T15:37:37;18.80;56.40
27671;DHT22;15077;49.704;9.908;2022-09-20T15:40:03;18.80;56.30
27671;DHT22;15077;49.704;9.908;2022-09-20T15:42:30;18.80;56.20
27671;DHT22;15077;49.704;9.908;2022-09-20T15:44:56;18.70;56.10
27671;DHT22;15077;49.704;9.908;2022-09-20T15:47:22;18.70;56.30
27671;DHT22;15077;49.704;9.908;2022-09-20T15:49:48;18.70;56.30
27671;DHT22;15077;49.704;9.908;2022-09-20T15:52:15;18.70;56.40
27671;DHT22;15077;49.704;9.908;2022-09-20T15:54:41;18.70;56.50
27671;DHT22;15077;49.704;9.908;2022-09-20T15:57:07;18.70;56.50
27671;DHT22;15077;49.704;9.908;2022-09-20T15:59:33;18.70;56.50
27671;DHT22;15077;49.704;9.908;2022-09-20T16:01:59;18.70;56.50
27671;DHT22;15077;49.704;9.908;2022-09-20T16:04:25;18.70;56.50
27671;DHT22;15077;49.704;9.908;2022-09-20T16:06:54;18.80;56.70
27671;DHT22;15077;49.704;9.908;2022-09-20T16:09:20;18.70;56.70
27671;DHT22;15077;49.704;9.908;2022-09-20T16:11:46;18.80;56.80
27671;DHT22;15077;49.704;9.908;2022-09-20T16:14:12;18.80;56.80
27671;DHT22;15077;49.704;9.908;2022-09-20T16:16:38;18.90;56.70
27671;DHT22;15077;49.704;9.908;2022-09-20T16:19:03;18.90;56.70
27671;DHT22;15077;49.704;9.908;2022-09-20T16:21:42;18.90;56.60
27671;DHT22;15077;49.704;9.908;2022-09-20T16:24:14;19.00;56.50
27671;DHT22;15077;49.704;9.908;2022-09-20T16:26:42;19.00;56.10
27671;DHT22;15077;49.704;9.908;2022-09-20T16:29:08;19.00;56.00
27671;DHT22;15077;49.704;9.908;2022-09-20T16:31:45;18.90;55.80
27671;DHT22;15077;49.704;9.908;2022-09-20T16:36:41;18.90;55.60
27671;DHT22;15077;49.704;9.908;2022-09-20T16:39:08;18.90;55.60
27671;DHT22;15077;49.704;9.908;2022-09-20T16:41:34;18.90;55.50
27671;DHT22;15077;49.704;9.908;2022-09-20T16:44:00;18.80;55.50
27671;DHT22;15077;49.704;9.908;2022-09-20T16:46:26;18.80;55.60
27671;DHT22;15077;49.704;9.908;2022-09-20T16:48:55;18.80;55.60
27671;DHT22;15077;49.704;9.908;2022-09-20T16:51:23;18.80;55.70
27671;DHT22;15077;49.704;9.908;2022-09-20T16:53:50;18.80;55.70
27671;DHT22;15077;49.704;9.908;2022-09-20T16:56:19;18.80;55.60
27671;DHT22;15077;49.704;9.908;2022-09-20T16:58:55;18.80;55.60
27671;DHT22;15077;49.704;9.908;2022-09-20T17:01:21;18.70;55.50
27671;DHT22;15077;49.704;9.908;2022-09-20T17:03:47;18.70;55.50
27671;DHT22;15077;49.704;9.908;2022-09-20T17:06:14;18.70;55.60
27671;DHT22;15077;49.704;9.908;2022-09-20T17:08:40;18.60;55.60
27671;DHT22;15077;49.704;9.908;2022-09-20T17:11:26;18.60;55.60
27671;DHT22;15077;49.704;9.908;2022-09-20T17:13:54;18.60;55.60
27671;DHT22;15077;49.704;9.908;2022-09-20T17:16:28;18.60;55.60
27671;DHT22;15077;49.704;9.908;2022-09-20T17:18:56;18.50;55.50
27671;DHT22;15077;49.704;9.908;2022-09-20T17:21:26;18.50;55.60
27671;DHT22;15077;49.704;9.908;2022-09-20T17:23:54;18.50;55.60
27671;DHT22;15077;49.704;9.908;2022-09-20T17:28:52;18.50;55.60
27671;DHT22;15077;49.704;9.908;2022-09-20T17:31:21;18.40;56.30
27671;DHT22;15077;49.704;9.908;2022-09-20T17:33:49;18.40;55.70
27671;DHT22;15077;49.704;9.908;2022-09-20T17:36:16;18.40;55.70
27671;DHT22;15077;49.704;9.908;2022-09-20T17:38:44;18.30;55.60
27671;DHT22;15077;49.704;9.908;2022-09-20T17:41:12;18.30;55.60
27671;DHT22;15077;49.704;9.908;2022-09-20T17:43:39;18.20;55.60
27671;DHT22;15077;49.704;9.908;2022-09-20T17:48:44;18.10;55.70
27671;DHT22;15077;49.704;9.908;2022-09-20T17:51:14;18.10;55.70
27671;DHT22;15077;49.704;9.908;2022-09-20T17:53:41;18.00;55.80
27671;DHT22;15077;49.704;9.908;2022-09-20T17:56:08;18.00;55.80
27671;DHT22;15077;49.704;9.908;2022-09-20T17:58:35;18.00;55.80
27671;DHT22;15077;49.704;9.908;2022-09-20T18:01:03;17.90;55.70
27671;DHT22;15077;49.704;9.908;2022-09-20T18:03:32;17.90;55.70
27671;DHT22;15077;49.704;9.908;2022-09-20T18:06:08;17.70;55.60
27671;DHT22;15077;49.704;9.908;2022-09-20T18:08:55;17.70;55.70
27671;DHT22;15077;49.704;9.908;2022-09-20T18:11:26;17.60;55.70
27671;DHT22;15077;49.704;9.908;2022-09-20T18:13:56;17.50;55.80
27671;DHT22;15077;49.704;9.908;2022-09-20T18:16:23;17.50;55.90
27671;DHT22;15077;49.704;9.908;2022-09-20T18:18:49;17.40;56.00
27671;DHT22;15077;49.704;9.908;2022-09-20T18:21:15;17.40;56.10
27671;DHT22;15077;49.704;9.908;2022-09-20T18:23:43;17.30;56.10
27671;DHT22;15077;49.704;9.908;2022-09-20T18:26:14;17.30;56.20
27671;DHT22;15077;49.704;9.908;2022-09-20T18:34:13;17.10;56.40
27671;DHT22;15077;49.704;9.908;2022-09-20T18:36:42;17.10;56.50
27671;DHT22;15077;49.704;9.908;2022-09-20T18:39:09;17.10;56.60
27671;DHT22;15077;49.704;9.908;2022-09-20T18:41:36;17.00;56.60
27671;DHT22;15077;49.704;9.908;2022-09-20T18:44:04;17.00;56.60
27671;DHT22;15077;49.704;9.908;2022-09-20T18:46:32;17.00;56.70
27671;DHT22;15077;49.704;9.908;2022-09-20T18:49:03;17.00;56.70
27671;DHT22;15077;49.704;9.908;2022-09-20T18:51:31;17.00;56.70
27671;DHT22;15077;49.704;9.908;2022-09-20T18:53:57;16.90;56.60
27671;DHT22;15077;49.704;9.908;2022-09-20T18:56:30;16.90;56.60
27671;DHT22;15077;49.704;9.908;2022-09-20T18:59:03;16.90;56.60
27671;DHT22;15077;49.704;9.908;2022-09-20T19:09:30;16.80;56.50
27671;DHT22;15077;49.704;9.908;2022-09-20T19:12:00;16.80;56.50
27671;DHT22;15077;49.704;9.908;2022-09-20T19:14:34;16.70;56.50
27671;DHT22;15077;49.704;9.908;2022-09-20T19:17:15;16.70;56.50
27671;DHT22;15077;49.704;9.908;2022-09-20T19:19:53;16.70;56.50
27671;DHT22;15077;49.704;9.908;2022-09-20T19:25:13;16.70;56.50
27671;DHT22;15077;49.704;9.908;2022-09-20T19:27:42;16.60;56.60
27671;DHT22;15077;49.704;9.908;2022-09-20T19:30:11;16.60;56.60
27671;DHT22;15077;49.704;9.908;2022-09-20T19:32:38;16.60;56.60
27671;DHT22;15077;49.704;9.908;2022-09-20T19:35:04;16.50;56.60
27671;DHT22;15077;49.704;9.908;2022-09-20T19:37:49;16.50;56.70
27671;DHT22;15077;49.704;9.908;2022-09-20T19:40:26;16.50;56.80
27671;DHT22;15077;49.704;9.908;2022-09-20T19:46:30;16.50;56.80
27671;DHT22;15077;49.704;9.908;2022-09-20T19:51:49;16.50;56.90
27671;DHT22;15077;49.704;9.908;2022-09-20T19:54:15;16.40;56.90
27671;DHT22;15077;49.704;9.908;2022-09-20T19:56:50;16.40;56.90
27671;DHT22;15077;49.704;9.908;2022-09-20T19:59:21;16.40;57.00
27671;DHT22;15077;49.704;9.908;2022-09-20T20:01:48;16.40;57.00
27671;DHT22;15077;49.704;9.908;2022-09-20T20:04:15;16.40;57.00
27671;DHT22;15077;49.704;9.908;2022-09-20T20:06:53;16.30;57.00
27671;DHT22;15077;49.704;9.908;2022-09-20T20:12:05;16.30;57.00
27671;DHT22;15077;49.704;9.908;2022-09-20T20:20:37;16.20;57.10
27671;DHT22;15077;49.704;9.908;2022-09-20T20:26:16;16.20;57.20
27671;DHT22;15077;49.704;9.908;2022-09-20T20:28:45;16.20;57.30
27671;DHT22;15077;49.704;9.908;2022-09-20T20:31:10;16.10;57.30
27671;DHT22;15077;49.704;9.908;2022-09-20T20:33:36;16.10;57.30
27671;DHT22;15077;49.704;9.908;2022-09-20T20:36:03;16.10;57.30
27671;DHT22;15077;49.704;9.908;2022-09-20T20:38:33;16.10;57.30
27671;DHT22;15077;49.704;9.908;2022-09-20T20:41:05;16.10;57.20
27671;DHT22;15077;49.704;9.908;2022-09-20T20:43:41;16.10;57.10
27671;DHT22;15077;49.704;9.908;2022-09-20T20:46:09;16.10;57.10
27671;DHT22;15077;49.704;9.908;2022-09-20T20:48:36;16.00;57.00
27671;DHT22;15077;49.704;9.908;2022-09-20T20:51:11;16.00;57.00
27671;DHT22;15077;49.704;9.908;2022-09-20T20:53:42;16.00;57.10
27671;DHT22;15077;49.704;9.908;2022-09-20T20:56:11;16.00;57.10
27671;DHT22;15077;49.704;9.908;2022-09-20T20:58:39;16.00;57.10
27671;DHT22;15077;49.704;9.908;2022-09-20T21:03:31;15.90;57.10
27671;DHT22;15077;49.704;9.908;2022-09-20T21:05:58;15.90;57.10
27671;DHT22;15077;49.704;9.908;2022-09-20T21:08:29;15.90;57.10
27671;DHT22;15077;49.704;9.908;2022-09-20T21:11:05;15.90;57.10
27671;DHT22;15077;49.704;9.908;2022-09-20T21:13:36;15.90;57.10
27671;DHT22;15077;49.704;9.908;2022-09-20T21:16:04;15.80;57.00
27671;DHT22;15077;49.704;9.908;2022-09-20T21:18:32;15.80;57.00
27671;DHT22;15077;49.704;9.908;2022-09-20T21:20:58;15.80;57.00
27671;DHT22;15077;49.704;9.908;2022-09-20T21:23:25;15.70;57.00
27671;DHT22;15077;49.704;9.908;2022-09-20T21:26:01;15.70;57.00
27671;DHT22;15077;49.704;9.908;2022-09-20T21:28:31;15.70;57.00
27671;DHT22;15077;49.704;9.908;2022-09-20T21:30:57;15.70;57.10
27671;DHT22;15077;49.704;9.908;2022-09-20T21:33:29;15.60;57.00
27671;DHT22;15077;49.704;9.908;2022-09-20T21:35:58;15.60;57.70
27671;DHT22;15077;49.704;9.908;2022-09-20T21:38:25;15.50;57.00
27671;DHT22;15077;49.704;9.908;2022-09-20T21:41:01;15.50;57.00
27671;DHT22;15077;49.704;9.908;2022-09-20T21:43:28;15.50;57.00
27671;DHT22;15077;49.704;9.908;2022-09-20T21:45:54;15.40;57.00
27671;DHT22;15077;49.704;9.908;2022-09-20T21:48:21;15.30;57.00
27671;DHT22;15077;49.704;9.908;2022-09-20T21:50:48;15.30;57.10
27671;DHT22;15077;49.704;9.908;2022-09-20T21:53:17;15.30;57.10
27671;DHT22;15077;49.704;9.908;2022-09-20T21:55:43;15.20;57.10